Wetterdaten: Mittwoch, 14.04.2010
Datum Zeit Temp. A. Feuchte A. Luftdruck Regen Wind Richtung Richtung Sonnenschein UV Solar Windben
14.04.2010 00:00 8,3 C 66 % 1015,6 hPa 0,0 mm 1,6 km/h (1 Bft) N-NO 22 0 min 0 UV-I 0 W/m 6,4 km/h (2 Bft)
14.04.2010 00:10 8,1 C 68 % 1015,6 hPa 0,0 mm 0,0 km/h (0 Bft) N 360 0 min 0 UV-I 0 W/m 4,8 km/h (1 Bft)
14.04.2010 00:20 7,8 C 68 % 1015,6 hPa 0,0 mm 0,0 km/h (0 Bft) NO 45 0 min 0 UV-I 0 W/m 4,8 km/h (1 Bft)
14.04.2010 00:30 7,6 C 69 % 1015,6 hPa 0,0 mm 0,0 km/h (0 Bft) NO 45 0 min 0 UV-I 0 W/m 1,6 km/h (1 Bft)
14.04.2010 00:40 7,4 C 69 % 1015,7 hPa 0,0 mm 0,0 km/h (0 Bft) NO 45 0 min 0 UV-I 0 W/m 3,2 km/h (1 Bft)
14.04.2010 00:50 7,4 C 69 % 1015,7 hPa 0,0 mm 0,0 km/h (0 Bft) NO 45 0 min 0 UV-I 0 W/m 1,6 km/h (1 Bft)
14.04.2010 01:00 7,3 C 70 % 1015,7 hPa 0,0 mm 0,0 km/h (0 Bft) NO 45 0 min 0 UV-I 0 W/m 1,6 km/h (1 Bft)
14.04.2010 01:10 7,1 C 71 % 1015,7 hPa 0,0 mm 0,0 km/h (0 Bft) NO 45 0 min 0 UV-I 0 W/m 3,2 km/h (1 Bft)
14.04.2010 01:20 6,7 C 72 % 1015,8 hPa 0,0 mm 0,0 km/h (0 Bft) N 0 0 min 0 UV-I 0 W/m 0,0 km/h (0 Bft)
14.04.2010 01:30 6,6 C 73 % 1015,7 hPa 0,0 mm 0,0 km/h (0 Bft) N 0 0 min 0 UV-I 0 W/m 0,0 km/h (0 Bft)
14.04.2010 01:40 6,2 C 74 % 1015,8 hPa 0,0 mm 0,0 km/h (0 Bft) N 0 0 min 0 UV-I 0 W/m 0,0 km/h (0 Bft)
14.04.2010 01:50 6,1 C 75 % 1015,7 hPa 0,0 mm 0,0 km/h (0 Bft) N 0 0 min 0 UV-I 0 W/m 0,0 km/h (0 Bft)
14.04.2010 02:00 5,9 C 78 % 1015,7 hPa 0,0 mm 0,0 km/h (0 Bft) NO 45 0 min 0 UV-I 0 W/m 1,6 km/h (1 Bft)
14.04.2010 02:10 6,0 C 78 % 1015,8 hPa 0,0 mm 0,0 km/h (0 Bft) N 0 0 min 0 UV-I 0 W/m 0,0 km/h (0 Bft)
14.04.2010 02:20 5,9 C 79 % 1015,8 hPa 0,0 mm 0,0 km/h (0 Bft) NO 45 0 min 0 UV-I 0 W/m 3,2 km/h (1 Bft)
14.04.2010 02:30 5,8 C 79 % 1015,9 hPa 0,0 mm 0,0 km/h (0 Bft) NO 45 0 min 0 UV-I 0 W/m 1,6 km/h (1 Bft)
14.04.2010 02:40 5,6 C 80 % 1015,9 hPa 0,0 mm 0,0 km/h (0 Bft) N 0 0 min 0 UV-I 0 W/m 0,0 km/h (0 Bft)
14.04.2010 02:50 5,5 C 81 % 1015,9 hPa 0,0 mm 0,0 km/h (0 Bft) NO 45 0 min 0 UV-I 0 W/m 1,6 km/h (1 Bft)
14.04.2010 03:00 5,5 C 80 % 1015,8 hPa 0,0 mm 0,0 km/h (0 Bft) N 0 0 min 0 UV-I 0 W/m 0,0 km/h (0 Bft)
14.04.2010 03:10 5,4 C 80 % 1015,7 hPa 0,0 mm 0,0 km/h (0 Bft) N 0 0 min 0 UV-I 0 W/m 0,0 km/h (0 Bft)
14.04.2010 03:20 5,3 C 79 % 1015,7 hPa 0,0 mm 0,0 km/h (0 Bft) N 0 0 min 0 UV-I 0 W/m 0,0 km/h (0 Bft)
14.04.2010 03:30 5,3 C 79 % 1015,7 hPa 0,0 mm 0,0 km/h (0 Bft) N 0 0 min 0 UV-I 0 W/m 0,0 km/h (0 Bft)
14.04.2010 03:40 5,3 C 79 % 1015,7 hPa 0,0 mm 0,0 km/h (0 Bft) N 0 0 min 0 UV-I 0 W/m 0,0 km/h (0 Bft)
14.04.2010 03:50 5,2 C 79 % 1015,8 hPa 0,0 mm 0,0 km/h (0 Bft) N 0 0 min 0 UV-I 0 W/m 0,0 km/h (0 Bft)
14.04.2010 04:00 4,7 C 81 % 1015,9 hPa 0,0 mm 0,0 km/h (0 Bft) N 0 0 min 0 UV-I 0 W/m 0,0 km/h (0 Bft)
14.04.2010 04:10 4,6 C 81 % 1015,8 hPa 0,0 mm 0,0 km/h (0 Bft) N 0 0 min 0 UV-I 0 W/m 0,0 km/h (0 Bft)
14.04.2010 04:20 4,5 C 81 % 1015,8 hPa 0,0 mm 0,0 km/h (0 Bft) N 0 0 min 0 UV-I 0 W/m 0,0 km/h (0 Bft)
14.04.2010 04:30 4,4 C 82 % 1015,8 hPa 0,0 mm 0,0 km/h (0 Bft) N 0 0 min 0 UV-I 0 W/m 0,0 km/h (0 Bft)
14.04.2010 04:40 4,4 C 82 % 1015,8 hPa 0,0 mm 0,0 km/h (0 Bft) N 0 0 min 0 UV-I 0 W/m 0,0 km/h (0 Bft)
14.04.2010 04:50 4,2 C 83 % 1015,8 hPa 0,0 mm 0,0 km/h (0 Bft) N 0 0 min 0 UV-I 0 W/m 0,0 km/h (0 Bft)
14.04.2010 05:00 4,1 C 84 % 1015,8 hPa 0,0 mm 0,0 km/h (0 Bft) N 0 0 min 0 UV-I 0 W/m 0,0 km/h (0 Bft)
14.04.2010 05:10 4,2 C 83 % 1015,8 hPa 0,0 mm 0,0 km/h (0 Bft) N 0 0 min 0 UV-I 0 W/m 0,0 km/h (0 Bft)
14.04.2010 05:20 4,2 C 83 % 1015,8 hPa 0,0 mm 0,0 km/h (0 Bft) N 0 0 min 0 UV-I 0 W/m 0,0 km/h (0 Bft)
14.04.2010 05:30 4,1 C 84 % 1015,8 hPa 0,0 mm 0,0 km/h (0 Bft) N 0 0 min 0 UV-I 0 W/m 0,0 km/h (0 Bft)
14.04.2010 05:40 4,1 C 84 % 1015,7 hPa 0,0 mm 0,0 km/h (0 Bft) N 0 0 min 0 UV-I 0 W/m 0,0 km/h (0 Bft)
14.04.2010 05:50 4,0 C 84 % 1015,8 hPa 0,0 mm 0,0 km/h (0 Bft) N 0 0 min 0 UV-I 0 W/m 0,0 km/h (0 Bft)
14.04.2010 06:00 3,8 C 84 % 1015,8 hPa 0,0 mm 0,0 km/h (0 Bft) N 0 0 min 0 UV-I 0 W/m 0,0 km/h (0 Bft)
14.04.2010 06:10 3,7 C 85 % 1015,8 hPa 0,0 mm 0,0 km/h (0 Bft) N 0 0 min 0 UV-I 0 W/m 0,0 km/h (0 Bft)
14.04.2010 06:20 3,6 C 85 % 1015,9 hPa 0,0 mm 0,0 km/h (0 Bft) N 0 0 min 0 UV-I 0 W/m 0,0 km/h (0 Bft)
14.04.2010 06:30 3,4 C 85 % 1015,9 hPa 0,0 mm 0,0 km/h (0 Bft) N 0 0 min 0 UV-I 0 W/m 0,0 km/h (0 Bft)
14.04.2010 06:40 3,3 C 85 % 1016,0 hPa 0,0 mm 0,0 km/h (0 Bft) NO 45 0 min 0 UV-I 0 W/m 1,6 km/h (1 Bft)
14.04.2010 06:50 3,2 C 86 % 1016,0 hPa 0,0 mm 0,0 km/h (0 Bft) NO 45 0 min 0 UV-I 7 W/m 1,6 km/h (1 Bft)
14.04.2010 07:00 3,2 C 87 % 1016,0 hPa 0,0 mm 0,0 km/h (0 Bft) N 0 0 min 0 UV-I 14 W/m 0,0 km/h (0 Bft)
14.04.2010 07:10 3,3 C 86 % 1016,1 hPa 0,0 mm 0,0 km/h (0 Bft) N 0 0 min 0 UV-I 23 W/m 0,0 km/h (0 Bft)
14.04.2010 07:20 3,2 C 87 % 1016,2 hPa 0,0 mm 0,0 km/h (0 Bft) N 0 0 min 0 UV-I 28 W/m 0,0 km/h (0 Bft)
14.04.2010 07:30 3,3 C 87 % 1016,2 hPa 0,0 mm 0,0 km/h (0 Bft) N 0 0 min 0 UV-I 60 W/m 0,0 km/h (0 Bft)
14.04.2010 07:40 3,4 C 87 % 1016,2 hPa 0,0 mm 0,0 km/h (0 Bft) N 0 0 min 0 UV-I 65 W/m 0,0 km/h (0 Bft)
14.04.2010 07:50 3,9 C 86 % 1016,2 hPa 0,0 mm 0,0 km/h (0 Bft) N 0 0 min 0 UV-I 86 W/m 0,0 km/h (0 Bft)
14.04.2010 08:01 4,5 C 85 % 1016,4 hPa 0,0 mm 0,0 km/h (0 Bft) NO 48 0 min 0 UV-I 78 W/m 0,0 km/h (0 Bft)
14.04.2010 08:10 4,7 C 85 % 1016,4 hPa 0,0 mm 0,0 km/h (0 Bft) N 0 0 min 0 UV-I 123 W/m 0,0 km/h (0 Bft)
14.04.2010 08:20 5,0 C 83 % 1016,5 hPa 0,0 mm 0,0 km/h (0 Bft) N 0 10 min 1 UV-I 223 W/m 0,0 km/h (0 Bft)
14.04.2010 08:30 5,5 C 81 % 1016,5 hPa 0,0 mm 0,0 km/h (0 Bft) NO 45 10 min 1 UV-I 220 W/m 1,6 km/h (1 Bft)
14.04.2010 08:40 6,0 C 80 % 1016,5 hPa 0,0 mm 0,0 km/h (0 Bft) NO 45 10 min 1 UV-I 225 W/m 1,6 km/h (1 Bft)
14.04.2010 08:50 6,3 C 79 % 1016,6 hPa 0,0 mm 0,0 km/h (0 Bft) NO 45 10 min 1 UV-I 287 W/m 1,6 km/h (1 Bft)
14.04.2010 09:00 6,7 C 78 % 1016,5 hPa 0,0 mm 0,0 km/h (0 Bft) NO 45 10 min 1 UV-I 302 W/m 1,6 km/h (1 Bft)
14.04.2010 09:10 7,2 C 76 % 1016,5 hPa 0,0 mm 0,0 km/h (0 Bft) NO 45 10 min 1 UV-I 336 W/m 1,6 km/h (1 Bft)
14.04.2010 09:20 7,7 C 75 % 1016,5 hPa 0,0 mm 0,0 km/h (0 Bft) NO 45 10 min 1 UV-I 348 W/m 1,6 km/h (1 Bft)
14.04.2010 09:30 8,1 C 74 % 1016,5 hPa 0,0 mm 0,0 km/h (0 Bft) NO 45 10 min 1 UV-I 380 W/m 1,6 km/h (1 Bft)
14.04.2010 09:40 9,1 C 68 % 1016,4 hPa 0,0 mm 0,0 km/h (0 Bft) NO 45 10 min 2 UV-I 420 W/m 6,4 km/h (2 Bft)
14.04.2010 09:50 10,6 C 62 % 1016,4 hPa 0,0 mm 3,2 km/h (1 Bft) O-NO 67 10 min 2 UV-I 443 W/m 11,3 km/h (2 Bft)
14.04.2010 10:00 11,1 C 59 % 1016,4 hPa 0,0 mm 6,4 km/h (2 Bft) O 90 10 min 2 UV-I 490 W/m 14,5 km/h (3 Bft)
14.04.2010 10:10 11,6 C 58 % 1016,4 hPa 0,0 mm 4,8 km/h (1 Bft) O 90 10 min 2 UV-I 512 W/m 14,5 km/h (3 Bft)
14.04.2010 10:20 11,9 C 57 % 1016,4 hPa 0,0 mm 4,8 km/h (1 Bft) O 90 10 min 2 UV-I 533 W/m 14,5 km/h (3 Bft)
14.04.2010 10:30 12,1 C 57 % 1016,4 hPa 0,0 mm 6,4 km/h (2 Bft) O-NO 67 10 min 2 UV-I 557 W/m 19,3 km/h (3 Bft)
14.04.2010 10:40 12,1 C 56 % 1016,5 hPa 0,0 mm 6,4 km/h (2 Bft) O-NO 67 10 min 3 UV-I 594 W/m 17,7 km/h (3 Bft)
14.04.2010 10:50 12,3 C 54 % 1016,5 hPa 0,0 mm 9,7 km/h (2 Bft) O-NO 67 10 min 3 UV-I 628 W/m 22,5 km/h (4 Bft)
14.04.2010 11:00 12,2 C 56 % 1016,5 hPa 0,0 mm 8,0 km/h (2 Bft) O-NO 67 10 min 3 UV-I 640 W/m 22,5 km/h (4 Bft)
14.04.2010 11:10 12,7 C 53 % 1016,5 hPa 0,0 mm 8,0 km/h (2 Bft) O-NO 67 10 min 3 UV-I 666 W/m 20,9 km/h (4 Bft)
14.04.2010 11:20 13,0 C 53 % 1016,4 hPa 0,0 mm 8,0 km/h (2 Bft) O-NO 67 10 min 3 UV-I 707 W/m 24,1 km/h (4 Bft)
14.04.2010 11:30 13,2 C 50 % 1016,4 hPa 0,0 mm 8,0 km/h (2 Bft) O 90 10 min 3 UV-I 759 W/m 19,3 km/h (3 Bft)
14.04.2010 11:40 13,1 C 49 % 1016,5 hPa 0,0 mm 8,0 km/h (2 Bft) O-NO 67 10 min 4 UV-I 791 W/m 20,9 km/h (4 Bft)
14.04.2010 11:50 13,2 C 49 % 1016,4 hPa 0,0 mm 6,4 km/h (2 Bft) O-NO 67 10 min 4 UV-I 726 W/m 17,7 km/h (3 Bft)
14.04.2010 12:00 13,4 C 46 % 1016,4 hPa 0,0 mm 6,4 km/h (2 Bft) O 90 10 min 4 UV-I 823 W/m 24,1 km/h (4 Bft)
14.04.2010 12:10 13,2 C 48 % 1016,4 hPa 0,0 mm 4,8 km/h (1 Bft) NO 45 10 min 4 UV-I 835 W/m 17,7 km/h (3 Bft)
14.04.2010 12:20 13,1 C 51 % 1016,4 hPa 0,0 mm 8,0 km/h (2 Bft) N-NO 22 10 min 4 UV-I 795 W/m 24,1 km/h (4 Bft)
14.04.2010 12:30 12,9 C 49 % 1016,3 hPa 0,0 mm 8,0 km/h (2 Bft) O-NO 67 10 min 4 UV-I 882 W/m 17,7 km/h (3 Bft)
14.04.2010 12:40 13,6 C 47 % 1016,4 hPa 0,0 mm 8,0 km/h (2 Bft) O-NO 67 10 min 4 UV-I 877 W/m 19,3 km/h (3 Bft)
14.04.2010 12:50 13,3 C 46 % 1016,4 hPa 0,0 mm 4,8 km/h (1 Bft) O-NO 67 10 min 4 UV-I 768 W/m 16,1 km/h (3 Bft)
14.04.2010 13:00 14,3 C 46 % 1016,2 hPa 0,0 mm 8,0 km/h (2 Bft) O 90 10 min 4 UV-I 940 W/m 22,5 km/h (4 Bft)
14.04.2010 13:10 14,9 C 46 % 1016,2 hPa 0,0 mm 8,0 km/h (2 Bft) O 90 10 min 4 UV-I 933 W/m 19,3 km/h (3 Bft)
14.04.2010 13:20 13,9 C 50 % 1016,4 hPa 0,0 mm 8,0 km/h (2 Bft) O-NO 67 10 min 4 UV-I 840 W/m 19,3 km/h (3 Bft)
14.04.2010 13:30 13,7 C 50 % 1016,3 hPa 0,0 mm 9,7 km/h (2 Bft) O 90 10 min 4 UV-I 831 W/m 22,5 km/h (4 Bft)
14.04.2010 13:40 13,4 C 54 % 1016,3 hPa 0,0 mm 6,4 km/h (2 Bft) O-NO 67 10 min 4 UV-I 872 W/m 24,1 km/h (4 Bft)
14.04.2010 13:50 13,7 C 53 % 1016,2 hPa 0,0 mm 8,0 km/h (2 Bft) O-NO 67 10 min 3 UV-I 422 W/m 22,5 km/h (4 Bft)
14.04.2010 14:00 13,2 C 55 % 1016,2 hPa 0,0 mm 8,0 km/h (2 Bft) O 90 10 min 4 UV-I 415 W/m 20,9 km/h (4 Bft)
14.04.2010 14:10 13,8 C 53 % 1016,3 hPa 0,0 mm 6,4 km/h (2 Bft) O 90 10 min 4 UV-I 867 W/m 24,1 km/h (4 Bft)
14.04.2010 14:20 13,1 C 55 % 1016,3 hPa 0,0 mm 6,4 km/h (2 Bft) O 90 10 min 4 UV-I 763 W/m 16,1 km/h (3 Bft)
14.04.2010 14:30 14,0 C 52 % 1016,3 hPa 0,0 mm 6,4 km/h (2 Bft) O-NO 67 10 min 4 UV-I 814 W/m 19,3 km/h (3 Bft)
14.04.2010 14:40 13,7 C 53 % 1016,3 hPa 0,0 mm 6,4 km/h (2 Bft) N-NO 22 0 min 3 UV-I 265 W/m 19,3 km/h (3 Bft)
14.04.2010 14:50 13,8 C 52 % 1016,2 hPa 0,0 mm 8,0 km/h (2 Bft) NO 45 10 min 3 UV-I 791 W/m 24,1 km/h (4 Bft)
14.04.2010 15:00 14,7 C 49 % 1016,1 hPa 0,0 mm 4,8 km/h (1 Bft) N-NO 22 10 min 3 UV-I 789 W/m 11,3 km/h (2 Bft)
14.04.2010 15:10 15,3 C 45 % 1016,0 hPa 0,0 mm 4,8 km/h (1 Bft) O 90 10 min 3 UV-I 780 W/m 14,5 km/h (3 Bft)
14.04.2010 15:20 15,3 C 44 % 1015,9 hPa 0,0 mm 8,0 km/h (2 Bft) N-NO 22 10 min 3 UV-I 810 W/m 22,5 km/h (4 Bft)
14.04.2010 15:30 14,9 C 46 % 1015,9 hPa 0,0 mm 6,4 km/h (2 Bft) N-NO 22 0 min 3 UV-I 285 W/m 20,9 km/h (4 Bft)
14.04.2010 15:40 14,4 C 45 % 1015,9 hPa 0,0 mm 6,4 km/h (2 Bft) O-NO 67 10 min 3 UV-I 715 W/m 20,9 km/h (4 Bft)
14.04.2010 15:50 15,5 C 41 % 1015,8 hPa 0,0 mm 4,8 km/h (1 Bft) O-NO 67 10 min 3 UV-I 731 W/m 20,9 km/h (4 Bft)
14.04.2010 16:00 16,1 C 40 % 1015,8 hPa 0,0 mm 4,8 km/h (1 Bft) O 90 10 min 3 UV-I 740 W/m 16,1 km/h (3 Bft)
14.04.2010 16:10 15,6 C 42 % 1015,7 hPa 0,0 mm 6,4 km/h (2 Bft) O-NO 67 10 min 2 UV-I 689 W/m 19,3 km/h (3 Bft)
14.04.2010 16:20 16,2 C 42 % 1015,5 hPa 0,0 mm 3,2 km/h (1 Bft) O 90 10 min 2 UV-I 654 W/m 11,3 km/h (2 Bft)
14.04.2010 16:30 16,9 C 40 % 1015,4 hPa 0,0 mm 4,8 km/h (1 Bft) O 90 10 min 2 UV-I 671 W/m 17,7 km/h (3 Bft)
14.04.2010 16:40 16,1 C 42 % 1015,6 hPa 0,0 mm 8,0 km/h (2 Bft) O-NO 67 10 min 2 UV-I 642 W/m 20,9 km/h (4 Bft)
14.04.2010 16:50 15,0 C 43 % 1015,5 hPa 0,0 mm 6,4 km/h (2 Bft) O-NO 67 10 min 2 UV-I 606 W/m 20,9 km/h (4 Bft)
14.04.2010 17:00 15,9 C 41 % 1015,4 hPa 0,0 mm 4,8 km/h (1 Bft) O-NO 67 10 min 2 UV-I 599 W/m 14,5 km/h (3 Bft)
14.04.2010 17:10 15,5 C 44 % 1015,5 hPa 0,0 mm 8,0 km/h (2 Bft) O-NO 67 0 min 1 UV-I 149 W/m 24,1 km/h (4 Bft)
14.04.2010 17:20 14,3 C 44 % 1015,6 hPa 0,0 mm 4,8 km/h (1 Bft) O-NO 67 0 min 1 UV-I 188 W/m 16,1 km/h (3 Bft)
14.04.2010 17:30 14,6 C 44 % 1015,5 hPa 0,0 mm 4,8 km/h (1 Bft) O-NO 67 10 min 1 UV-I 445 W/m 11,3 km/h (2 Bft)
14.04.2010 17:40 14,8 C 44 % 1015,4 hPa 0,0 mm 4,8 km/h (1 Bft) O-NO 67 10 min 1 UV-I 408 W/m 16,1 km/h (3 Bft)
14.04.2010 17:50 15,2 C 43 % 1015,4 hPa 0,0 mm 4,8 km/h (1 Bft) O-NO 67 10 min 1 UV-I 427 W/m 17,7 km/h (3 Bft)
14.04.2010 18:00 15,1 C 44 % 1015,3 hPa 0,0 mm 4,8 km/h (1 Bft) N-NO 22 0 min 1 UV-I 146 W/m 16,1 km/h (3 Bft)
14.04.2010 18:10 14,5 C 46 % 1015,4 hPa 0,0 mm 6,4 km/h (2 Bft) N-NO 22 10 min 1 UV-I 211 W/m 20,9 km/h (4 Bft)
14.04.2010 18:20 13,9 C 47 % 1015,5 hPa 0,0 mm 6,4 km/h (2 Bft) N 360 0 min 1 UV-I 123 W/m 19,3 km/h (3 Bft)
14.04.2010 18:30 13,7 C 47 % 1015,5 hPa 0,0 mm 9,7 km/h (2 Bft) N 360 10 min 0 UV-I 178 W/m 24,1 km/h (4 Bft)
14.04.2010 18:40 13,5 C 48 % 1015,5 hPa 0,0 mm 6,4 km/h (2 Bft) N-NO 22 10 min 0 UV-I 179 W/m 19,3 km/h (3 Bft)
14.04.2010 18:50 13,7 C 50 % 1015,6 hPa 0,0 mm 3,2 km/h (1 Bft) O-NO 67 10 min 0 UV-I 176 W/m 19,3 km/h (3 Bft)
14.04.2010 19:00 13,4 C 49 % 1015,7 hPa 0,0 mm 4,8 km/h (1 Bft) N-NO 22 0 min 0 UV-I 72 W/m 17,7 km/h (3 Bft)
14.04.2010 19:10 13,1 C 51 % 1015,7 hPa 0,0 mm 4,8 km/h (1 Bft) N-NO 22 0 min 0 UV-I 49 W/m 19,3 km/h (3 Bft)
14.04.2010 19:20 12,9 C 51 % 1015,8 hPa 0,0 mm 6,4 km/h (2 Bft) O-NO 67 0 min 0 UV-I 39 W/m 17,7 km/h (3 Bft)
14.04.2010 19:30 12,8 C 52 % 1015,9 hPa 0,0 mm 4,8 km/h (1 Bft) O-NO 67 0 min 0 UV-I 12 W/m 16,1 km/h (3 Bft)
14.04.2010 19:40 12,6 C 52 % 1015,9 hPa 0,0 mm 2,8 km/h (1 Bft) N 360 0 min 0 UV-I 11 W/m 8,0 km/h (2 Bft)
14.04.2010 19:50 12,4 C 53 % 1016,0 hPa 0,0 mm 2,4 km/h (1 Bft) N-NO 16 0 min 0 UV-I 4 W/m 9,7 km/h (2 Bft)
14.04.2010 20:00 12,3 C 53 % 1015,9 hPa 0,0 mm 2,9 km/h (1 Bft) O-NO 76 0 min 0 UV-I 0 W/m 16,1 km/h (3 Bft)
14.04.2010 20:10 12,3 C 53 % 1015,9 hPa 0,0 mm 3,0 km/h (1 Bft) O-NO 66 0 min 0 UV-I 0 W/m 9,7 km/h (2 Bft)
14.04.2010 20:20 11,9 C 55 % 1016,1 hPa 0,0 mm 2,6 km/h (1 Bft) O-NO 73 0 min 0 UV-I 0 W/m 20,9 km/h (4 Bft)
14.04.2010 20:30 11,4 C 57 % 1016,2 hPa 0,0 mm 0,8 km/h (0 Bft) NO 38 0 min 0 UV-I 0 W/m 8,0 km/h (2 Bft)
14.04.2010 20:40 11,3 C 57 % 1016,4 hPa 0,0 mm 1,3 km/h (1 Bft) O-NO 69 0 min 0 UV-I 0 W/m 6,4 km/h (2 Bft)
14.04.2010 20:50 11,3 C 57 % 1016,4 hPa 0,0 mm 1,4 km/h (1 Bft) O-NO 57 0 min 0 UV-I 0 W/m 8,0 km/h (2 Bft)
14.04.2010 21:00 11,3 C 58 % 1016,5 hPa 0,0 mm 1,4 km/h (1 Bft) O-NO 74 0 min 0 UV-I 0 W/m 6,4 km/h (2 Bft)
14.04.2010 21:10 11,3 C 59 % 1016,5 hPa 0,0 mm 1,7 km/h (1 Bft) O 92 0 min 0 UV-I 0 W/m 8,0 km/h (2 Bft)
14.04.2010 21:20 11,2 C 60 % 1016,6 hPa 0,0 mm 1,7 km/h (1 Bft) O-NO 69 0 min 0 UV-I 0 W/m 8,0 km/h (2 Bft)
14.04.2010 21:30 11,1 C 59 % 1016,7 hPa 0,0 mm 1,7 km/h (1 Bft) O-NO 68 0 min 0 UV-I 0 W/m 8,0 km/h (2 Bft)
14.04.2010 21:40 10,8 C 60 % 1016,8 hPa 0,0 mm 1,0 km/h (0 Bft) O-NO 73 0 min 0 UV-I 0 W/m 4,8 km/h (1 Bft)
14.04.2010 21:50 10,6 C 60 % 1016,8 hPa 0,0 mm 0,9 km/h (0 Bft) O 82 0 min 0 UV-I 0 W/m 4,8 km/h (1 Bft)
14.04.2010 22:00 10,3 C 61 % 1016,8 hPa 0,0 mm 1,3 km/h (1 Bft) O 92 0 min 0 UV-I 0 W/m 4,8 km/h (1 Bft)
14.04.2010 22:10 10,2 C 61 % 1016,8 hPa 0,0 mm 0,3 km/h (0 Bft) O-NO 67 0 min 0 UV-I 0 W/m 3,2 km/h (1 Bft)
14.04.2010 22:20 10,1 C 62 % 1016,8 hPa 0,0 mm 0,0 km/h (0 Bft) O-NO 67 0 min 0 UV-I 0 W/m 1,6 km/h (1 Bft)
14.04.2010 22:30 10,1 C 61 % 1016,8 hPa 0,0 mm 0,0 km/h (0 Bft) O-NO 67 0 min 0 UV-I 0 W/m 0,0 km/h (0 Bft)
14.04.2010 22:40 9,8 C 62 % 1016,8 hPa 0,0 mm 0,0 km/h (0 Bft) O-NO 67 0 min 0 UV-I 0 W/m 0,0 km/h (0 Bft)
14.04.2010 22:50 9,6 C 64 % 1017,0 hPa 0,0 mm 0,0 km/h (0 Bft) O-NO 67 0 min 0 UV-I 0 W/m 1,6 km/h (1 Bft)
14.04.2010 23:00 9,1 C 66 % 1017,0 hPa 0,0 mm 0,0 km/h (0 Bft) O-NO 67 0 min 0 UV-I 0 W/m 3,2 km/h (1 Bft)
14.04.2010 23:10 8,8 C 67 % 1016,9 hPa 0,0 mm 0,0 km/h (0 Bft) NO 45 0 min 0 UV-I 0 W/m 4,8 km/h (1 Bft)
14.04.2010 23:20 8,8 C 67 % 1017,0 hPa 0,0 mm 1,6 km/h (1 Bft) N-NO 22 0 min 0 UV-I 0 W/m 4,8 km/h (1 Bft)
14.04.2010 23:30 8,8 C 67 % 1017,0 hPa 0,0 mm 1,6 km/h (1 Bft) N-NO 22 0 min 0 UV-I 0 W/m 6,4 km/h (2 Bft)
14.04.2010 23:40 8,7 C 68 % 1017,1 hPa 0,0 mm 0,0 km/h (0 Bft) NO 45 0 min 0 UV-I 0 W/m 4,8 km/h (1 Bft)
14.04.2010 23:50 8,4 C 70 % 1017,1 hPa 0,0 mm 1,6 km/h (1 Bft) O-NO 67 0 min 0 UV-I 0 W/m 12,9 km/h (3 Bft)
_ Min-Zeit 06:50 16:00 18:00 - 00:10 - - - - - 01:20
Minimum _ 3,1 C 40 % 1015,3 hPa - 0,0 km/h (0 Bft) - - - - - 0,0 km/h (0 Bft)
_ Max-Zeit 16:30 07:00 23:40 00:00 10:50 - - 08:20 13:00 13:00 11:20
Maximum _ 17,0 C 87 % 1017,1 hPa 0,0 mm 9,7 km/h
O-NO (2 Bft)
- - 10 min 4 UV-I 940 W/m 24,1 km/h
O-SO (4 Bft)
Durchschnitt _ 9,8 C 63 % 1016,1 hPa #0,0 mm 2,8 km/h (1 Bft) O-NO - #9:40 h 2 UV-I 462 W/m 9,4 km/h (2 Bft)